Time;durP1;ratioP1;P1;durP2;ratioP2;P2;SDS_P1;SDS_P2;PMS_P1;PMS_P2;Temp;Humidity;BMP_temperature;BMP_pressure;BME280_temperature;BME280_humidity;BME280_pressure;Samples;Min_cycle;Max_cycle;Signal;HPM_P1;HPM_P2
2021/06/12 00:00:20;;;;;;;13.17;7.37;;;16.30;99.90;;;;;;5311614;27;20114;-63
2021/06/12 00:02:48;;;;;;;10.83;7.37;;;16.30;99.90;;;;;;5311504;27;20148;-62
2021/06/12 00:05:16;;;;;;;14.13;8.70;;;16.30;99.90;;;;;;5311498;27;20118;-63
2021/06/12 00:07:43;;;;;;;14.17;9.73;;;16.20;99.90;;;;;;5311386;27;20130;-63
2021/06/12 00:10:21;;;;;;;15.07;9.53;;;16.30;99.90;;;;;;5311434;27;20168;-63
2021/06/12 00:12:48;;;;;;;13.73;9.00;;;16.20;99.90;;;;;;5311486;27;20110;-62
2021/06/12 00:15:18;;;;;;;13.63;8.60;;;16.20;99.90;;;;;;5311523;27;20110;-62
2021/06/12 00:17:45;;;;;;;13.30;8.63;;;16.20;99.90;;;;;;5311270;27;20454;-62
2021/06/12 00:20:19;;;;;;;14.33;8.57;;;16.20;99.90;;;;;;5310514;27;20166;-62
2021/06/12 00:22:47;;;;;;;13.70;8.93;;;16.20;99.90;;;;;;5309928;27;20414;-63
2021/06/12 00:25:15;;;;;;;14.60;8.50;;;16.20;99.90;;;;;;5311399;27;20110;-63
2021/06/12 00:27:43;;;;;;;11.60;8.07;;;16.10;99.90;;;;;;5311183;27;20121;-63
2021/06/12 00:30:11;;;;;;;12.27;8.13;;;16.10;99.90;;;;;;5311670;27;20117;-63
2021/06/12 00:32:39;;;;;;;14.60;8.07;;;16.10;99.90;;;;;;5311765;27;20114;-63
2021/06/12 00:35:07;;;;;;;13.73;7.93;;;16.10;99.90;;;;;;5310744;27;20340;-63
2021/06/12 00:37:34;;;;;;;12.60;8.37;;;16.10;99.90;;;;;;5311263;27;20129;-63
2021/06/12 00:40:02;;;;;;;13.70;8.43;;;16.10;99.90;;;;;;5311335;27;20150;-63
2021/06/12 00:42:29;;;;;;;15.43;8.63;;;16.10;99.90;;;;;;5311831;27;20113;-63
2021/06/12 00:44:56;;;;;;;11.27;8.20;;;16.00;99.90;;;;;;5311265;27;20115;-62
2021/06/12 00:47:23;;;;;;;14.97;8.87;;;16.10;99.90;;;;;;5311179;27;20110;-63
2021/06/12 00:49:50;;;;;;;12.27;8.30;;;16.10;99.90;;;;;;5311034;27;20141;-62
2021/06/12 00:52:17;;;;;;;13.77;8.90;;;16.00;99.90;;;;;;5309072;27;20411;-63
2021/06/12 00:54:44;;;;;;;12.63;8.13;;;15.90;99.90;;;;;;5311154;27;20110;-62
2021/06/12 00:57:11;;;;;;;10.37;7.77;;;15.90;99.90;;;;;;5311180;27;20180;-63
2021/06/12 00:59:38;;;;;;;12.37;8.27;;;15.90;99.90;;;;;;5311206;27;20172;-63
2021/06/12 01:02:05;;;;;;;12.10;7.53;;;16.00;99.90;;;;;;5310999;27;20134;-63
2021/06/12 01:04:32;;;;;;;13.27;8.53;;;15.90;99.90;;;;;;5311190;27;20125;-63
2021/06/12 01:06:59;;;;;;;11.87;8.30;;;15.90;99.90;;;;;;5310048;27;20444;-63
2021/06/12 01:09:26;;;;;;;13.57;8.57;;;15.80;99.90;;;;;;5311592;27;20333;-63
2021/06/12 01:12:02;;;;;;;13.23;8.17;;;15.80;99.90;;;;;;5311152;27;20113;-63
2021/06/12 01:14:33;;;;;;;13.67;9.00;;;15.80;99.90;;;;;;5309008;27;20147;-62
2021/06/12 01:17:12;;;;;;;12.60;8.57;;;15.80;99.90;;;;;;5311159;27;20148;-62
2021/06/12 01:20:06;;;;;;;12.90;9.33;;;15.80;99.90;;;;;;5311087;27;20105;-63
2021/06/12 01:22:39;;;;;;;13.50;8.50;;;15.80;99.90;;;;;;5311407;27;20361;-63
2021/06/12 01:25:17;;;;;;;12.07;8.13;;;15.80;99.90;;;;;;5311092;27;20148;-63
2021/06/12 01:28:25;;;;;;;13.20;8.10;;;15.70;99.90;;;;;;5310646;27;20113;-63
2021/06/12 01:30:54;;;;;;;13.87;8.20;;;15.60;99.90;;;;;;5311066;27;20144;-63
2021/06/12 01:33:22;;;;;;;11.63;8.43;;;15.50;99.90;;;;;;5310709;27;20124;-63
2021/06/12 01:36:04;;;;;;;12.43;8.20;;;15.50;99.90;;;;;;5311041;27;20110;-63
2021/06/12 01:38:33;;;;;;;14.73;9.13;;;15.40;99.90;;;;;;5310965;27;20185;-63
2021/06/12 01:41:03;;;;;;;14.17;8.93;;;15.40;99.90;;;;;;5311213;27;20141;-62
2021/06/12 01:43:32;;;;;;;15.23;8.90;;;15.50;99.90;;;;;;5310976;27;20117;-63
2021/06/12 01:45:59;;;;;;;11.47;8.03;;;15.50;99.90;;;;;;5310943;27;20113;-62
2021/06/12 01:48:27;;;;;;;11.83;7.87;;;15.50;99.90;;;;;;5310838;27;20137;-63
2021/06/12 01:50:58;;;;;;;14.00;8.80;;;15.40;99.90;;;;;;5310803;27;20161;-62
2021/06/12 01:53:30;;;;;;;12.67;7.83;;;15.50;99.90;;;;;;5311340;27;20113;-62
2021/06/12 01:56:04;;;;;;;10.57;7.63;;;15.40;99.90;;;;;;5310907;27;20132;-62
2021/06/12 01:58:33;;;;;;;9.73;7.03;;;15.50;99.90;;;;;;5310239;27;20141;-62
2021/06/12 02:01:01;;;;;;;11.93;7.80;;;15.40;99.90;;;;;;5310788;27;20147;-63
2021/06/12 02:03:29;;;;;;;11.57;7.93;;;15.40;99.90;;;;;;5308029;27;20444;-62
2021/06/12 02:05:56;;;;;;;11.23;8.00;;;15.40;99.90;;;;;;5310764;27;20310;-62
2021/06/12 02:08:25;;;;;;;9.77;7.20;;;15.40;99.90;;;;;;5308664;27;20117;-62
2021/06/12 02:10:53;;;;;;;10.27;7.00;;;15.30;99.90;;;;;;5310434;27;20125;-62
2021/06/12 02:13:23;;;;;;;11.17;7.33;;;15.20;99.90;;;;;;5308413;27;20513;-62
2021/06/12 02:15:56;;;;;;;8.50;7.23;;;15.30;99.90;;;;;;5310558;27;20129;-62
2021/06/12 02:18:25;;;;;;;9.40;6.80;;;15.20;99.90;;;;;;5311386;27;20153;-62
2021/06/12 02:20:54;;;;;;;10.90;7.17;;;15.20;99.90;;;;;;5312079;27;20120;-62
2021/06/12 02:23:23;;;;;;;8.43;6.83;;;15.20;99.90;;;;;;5312737;27;20461;-62
2021/06/12 02:25:53;;;;;;;10.17;7.20;;;15.20;99.90;;;;;;5312225;27;20110;-62
2021/06/12 02:28:22;;;;;;;9.83;6.80;;;15.10;99.90;;;;;;5312125;27;20174;-62
2021/06/12 02:30:53;;;;;;;9.70;6.73;;;15.10;99.90;;;;;;5312828;27;20136;-62
2021/06/12 02:33:22;;;;;;;10.63;7.40;;;15.00;99.90;;;;;;5312114;27;20110;-63
2021/06/12 02:35:49;;;;;;;8.83;7.03;;;15.10;99.90;;;;;;5312137;27;20125;-62
2021/06/12 02:38:16;;;;;;;9.17;7.10;;;15.00;99.90;;;;;;5312121;27;20143;-62
2021/06/12 02:40:43;;;;;;;9.23;7.10;;;15.00;99.90;;;;;;5312062;27;20482;-62
2021/06/12 02:43:10;;;;;;;10.27;7.37;;;15.00;99.90;;;;;;5312137;27;20167;-62
2021/06/12 02:45:37;;;;;;;10.23;7.10;;;15.00;99.90;;;;;;5312069;27;20319;-62
2021/06/12 02:48:08;;;;;;;10.47;7.13;;;15.00;99.90;;;;;;5310484;27;20113;-62
2021/06/12 02:50:37;;;;;;;9.57;7.17;;;15.00;99.90;;;;;;5312108;27;20130;-62
2021/06/12 02:53:08;;;;;;;11.17;7.30;;;15.00;99.90;;;;;;5312058;27;20155;-62
2021/06/12 02:55:39;;;;;;;10.27;7.30;;;15.10;99.90;;;;;;5311979;27;20110;-62
2021/06/12 02:58:07;;;;;;;11.30;7.40;;;15.00;99.90;;;;;;5311438;27;20125;-62
2021/06/12 03:00:36;;;;;;;9.80;7.00;;;15.10;99.90;;;;;;5311824;27;20114;-62
2021/06/12 03:03:05;;;;;;;9.93;7.20;;;15.10;99.90;;;;;;5311697;27;20478;-63
2021/06/12 03:05:36;;;;;;;11.70;7.53;;;15.20;99.90;;;;;;5309864;27;20125;-62
2021/06/12 03:08:03;;;;;;;10.20;7.60;;;15.20;99.90;;;;;;5311863;27;20133;-62
2021/06/12 03:10:33;;;;;;;12.03;7.33;;;15.30;99.90;;;;;;5312157;27;20113;-62
2021/06/12 03:13:07;;;;;;;10.10;7.67;;;15.30;99.90;;;;;;5311815;27;20113;-62
2021/06/12 03:15:34;;;;;;;8.70;6.97;;;15.40;99.90;;;;;;5312292;27;20151;-62
2021/06/12 03:18:03;;;;;;;11.03;7.50;;;15.30;99.90;;;;;;5311678;27;20148;-63
2021/06/12 03:20:31;;;;;;;8.93;7.40;;;15.30;99.90;;;;;;5309775;27;20110;-63
2021/06/12 03:23:01;;;;;;;11.33;7.37;;;15.40;99.90;;;;;;5311800;27;20113;-63
2021/06/12 03:25:29;;;;;;;10.63;7.50;;;15.50;99.90;;;;;;5312058;27;20143;-63
2021/06/12 03:27:57;;;;;;;10.17;7.50;;;15.60;99.90;;;;;;5311775;27;20129;-62
2021/06/12 03:30:29;;;;;;;13.83;7.77;;;15.60;99.90;;;;;;5309069;27;20151;-63
2021/06/12 03:32:56;;;;;;;10.73;8.27;;;15.70;99.90;;;;;;5310022;27;20121;-63
2021/06/12 03:35:24;;;;;;;11.90;7.97;;;15.60;99.90;;;;;;5311711;27;20404;-63
2021/06/12 03:37:51;;;;;;;11.57;8.17;;;15.70;99.90;;;;;;5311669;27;20153;-63
2021/06/12 03:40:19;;;;;;;14.00;8.60;;;15.70;99.90;;;;;;5311681;27;20151;-63
2021/06/12 03:42:46;;;;;;;14.80;8.40;;;15.70;99.90;;;;;;5311671;27;20116;-63
2021/06/12 03:45:15;;;;;;;12.80;8.43;;;15.70;99.90;;;;;;5311591;27;20153;-63
2021/06/12 03:47:42;;;;;;;14.07;8.20;;;15.70;99.90;;;;;;5312202;27;20114;-63
2021/06/12 03:50:11;;;;;;;12.63;8.07;;;15.80;99.90;;;;;;5312161;27;20121;-62
2021/06/12 03:52:40;;;;;;;13.37;8.00;;;15.90;99.90;;;;;;5311397;27;20111;-62
2021/06/12 03:55:08;;;;;;;11.90;8.47;;;16.00;99.90;;;;;;5311491;27;20121;-63
2021/06/12 03:57:36;;;;;;;12.17;8.27;;;16.00;99.90;;;;;;5311575;27;20129;-63
2021/06/12 04:00:11;;;;;;;11.40;7.37;;;16.10;99.90;;;;;;5311524;27;20113;-63
2021/06/12 04:02:43;;;;;;;11.50;7.57;;;16.10;99.90;;;;;;5311542;27;20145;-62
2021/06/12 04:05:10;;;;;;;10.53;7.43;;;16.30;99.90;;;;;;5311500;27;20140;-62
2021/06/12 04:07:38;;;;;;;11.93;7.53;;;16.20;99.90;;;;;;5311437;27;20110;-62
2021/06/12 04:10:08;;;;;;;11.83;7.50;;;16.20;99.90;;;;;;5311081;27;20207;-63
2021/06/12 04:12:34;;;;;;;10.40;7.70;;;16.20;99.90;;;;;;5311050;27;20109;-62
2021/06/12 04:15:02;;;;;;;10.97;7.60;;;16.20;99.90;;;;;;5311127;27;20511;-63
2021/06/12 04:17:29;;;;;;;12.87;8.17;;;16.20;99.90;;;;;;5311148;27;20332;-63
2021/06/12 04:19:57;;;;;;;13.50;7.47;;;16.30;99.90;;;;;;5311653;27;20113;-63
2021/06/12 04:22:25;;;;;;;10.23;7.60;;;16.40;99.90;;;;;;5311342;27;20113;-63
2021/06/12 04:24:52;;;;;;;10.33;7.47;;;16.50;99.90;;;;;;5311585;27;20110;-62
2021/06/12 04:27:19;;;;;;;11.90;7.90;;;16.60;99.90;;;;;;5311291;27;20109;-63
2021/06/12 04:29:46;;;;;;;11.40;7.67;;;16.80;99.90;;;;;;5311218;27;20195;-63
2021/06/12 04:32:12;;;;;;;11.57;8.30;;;16.80;99.90;;;;;;5311673;27;20155;-63
2021/06/12 04:34:40;;;;;;;13.53;7.83;;;16.90;99.90;;;;;;5311625;27;20307;-63
2021/06/12 04:37:08;;;;;;;12.03;8.50;;;17.00;99.90;;;;;;5311063;27;20114;-63
2021/06/12 04:39:35;;;;;;;10.93;8.47;;;17.10;99.90;;;;;;5311183;27;20117;-63
2021/06/12 04:42:02;;;;;;;13.83;9.10;;;17.10;99.90;;;;;;5310926;27;20185;-63
2021/06/12 04:44:29;;;;;;;15.73;10.63;;;17.10;99.90;;;;;;5311129;27;20385;-63
2021/06/12 04:46:56;;;;;;;17.23;11.80;;;17.20;99.90;;;;;;5311215;27;20110;-63
2021/06/12 04:49:22;;;;;;;17.27;12.33;;;17.20;99.90;;;;;;5310955;27;20152;-63
2021/06/12 04:51:49;;;;;;;15.83;11.80;;;17.30;99.90;;;;;;5311118;27;20110;-63
2021/06/12 04:54:16;;;;;;;17.30;12.27;;;17.30;99.90;;;;;;5311126;27;20144;-63
2021/06/12 04:56:43;;;;;;;18.77;12.30;;;17.40;99.90;;;;;;5311145;27;20114;-63
2021/06/12 04:59:10;;;;;;;16.17;11.37;;;17.40;99.90;;;;;;5311264;27;20118;-63
2021/06/12 05:01:37;;;;;;;16.97;11.40;;;17.40;99.90;;;;;;5310481;27;20164;-63
2021/06/12 05:04:04;;;;;;;16.43;10.77;;;17.40;99.90;;;;;;5311115;27;20114;-62
2021/06/12 05:06:31;;;;;;;14.33;10.40;;;17.40;99.90;;;;;;5309297;27;20133;-63
2021/06/12 05:08:57;;;;;;;17.03;10.20;;;17.50;99.90;;;;;;5311005;27;20117;-63
2021/06/12 05:11:24;;;;;;;15.53;10.10;;;17.50;99.90;;;;;;5311261;27;20158;-63
2021/06/12 05:13:51;;;;;;;14.37;9.87;;;17.60;99.90;;;;;;5311042;27;20182;-63
2021/06/12 05:16:18;;;;;;;15.70;10.17;;;17.70;99.90;;;;;;5311123;27;20106;-63
2021/06/12 05:18:45;;;;;;;13.73;9.93;;;17.80;99.90;;;;;;5310974;27;20113;-63
2021/06/12 05:21:13;;;;;;;14.43;9.90;;;17.80;99.90;;;;;;5311011;27;20169;-63
2021/06/12 05:23:40;;;;;;;13.70;9.93;;;17.90;99.90;;;;;;5311254;27;20443;-63
2021/06/12 05:26:08;;;;;;;12.53;9.43;;;18.10;99.90;;;;;;5310768;27;20110;-63
2021/06/12 05:28:35;;;;;;;12.20;9.60;;;18.10;99.90;;;;;;5311135;27;20113;-63
2021/06/12 05:31:02;;;;;;;13.37;9.47;;;18.20;99.90;;;;;;5310929;27;20145;-63
2021/06/12 05:33:30;;;;;;;15.47;10.00;;;18.20;99.90;;;;;;5310887;27;20136;-64
2021/06/12 05:35:58;;;;;;;11.87;9.17;;;18.40;99.90;;;;;;5310955;27;20114;-63
2021/06/12 05:38:26;;;;;;;14.03;9.77;;;18.60;99.90;;;;;;5308808;27;20307;-63
2021/06/12 05:40:55;;;;;;;13.33;9.33;;;18.80;99.90;;;;;;5310938;27;20109;-63
2021/06/12 05:43:23;;;;;;;13.40;9.07;;;18.90;99.90;;;;;;5310857;27;20164;-63
2021/06/12 05:45:50;;;;;;;10.90;8.80;;;19.00;99.90;;;;;;5309638;27;20125;-63
2021/06/12 05:48:18;;;;;;;11.77;7.57;;;19.20;99.90;;;;;;5310379;27;20109;-63
2021/06/12 05:50:44;;;;;;;12.03;8.00;;;19.40;99.90;;;;;;5310891;27;20334;-63
2021/06/12 05:53:11;;;;;;;10.93;7.57;;;19.60;99.90;;;;;;5312000;27;20129;-63
2021/06/12 05:55:38;;;;;;;10.57;7.60;;;19.60;99.90;;;;;;5310236;27;20110;-63
2021/06/12 05:58:05;;;;;;;12.70;7.87;;;19.80;99.90;;;;;;5312187;27;20158;-63
2021/06/12 06:00:32;;;;;;;13.93;7.90;;;19.80;99.90;;;;;;5312286;27;20410;-63
2021/06/12 06:02:59;;;;;;;10.10;7.73;;;19.90;99.90;;;;;;5311488;27;20186;-64
2021/06/12 06:05:26;;;;;;;11.77;7.90;;;19.90;99.90;;;;;;5310990;27;20110;-64
2021/06/12 06:07:53;;;;;;;13.43;6.93;;;20.10;99.90;;;;;;5309900;27;20378;-64
2021/06/12 06:10:21;;;;;;;10.23;6.90;;;20.30;99.90;;;;;;5312179;27;20132;-63
2021/06/12 06:12:48;;;;;;;8.77;6.90;;;20.40;99.90;;;;;;5310552;27;20357;-64
2021/06/12 06:15:16;;;;;;;11.30;7.23;;;20.70;99.90;;;;;;5311176;27;20122;-64
2021/06/12 06:17:43;;;;;;;8.77;6.90;;;20.70;99.90;;;;;;5311176;27;20140;-64
2021/06/12 06:20:13;;;;;;;8.73;6.37;;;20.70;99.90;;;;;;5312194;27;20161;-64
2021/06/12 06:22:42;;;;;;;8.33;6.00;;;20.80;99.90;;;;;;5312562;27;20106;-64
2021/06/12 06:25:09;;;;;;;10.27;6.57;;;20.80;99.90;;;;;;5312152;27;20133;-64
2021/06/12 06:27:36;;;;;;;9.87;6.30;;;20.90;99.90;;;;;;5310071;27;20208;-63
2021/06/12 06:30:06;;;;;;;7.13;5.73;;;20.90;99.90;;;;;;5312024;27;20117;-63
2021/06/12 06:32:32;;;;;;;9.27;5.70;;;21.00;99.90;;;;;;5309987;27;20137;-63
2021/06/12 06:35:00;;;;;;;8.77;5.13;;;21.00;99.90;;;;;;5311716;27;20130;-64
2021/06/12 06:37:27;;;;;;;7.77;5.60;;;21.10;99.90;;;;;;5311758;27;20152;-63
2021/06/12 06:39:54;;;;;;;8.57;5.83;;;21.20;99.90;;;;;;5311866;27;20188;-64
2021/06/12 06:42:20;;;;;;;8.37;5.13;;;21.20;99.90;;;;;;5311383;27;20153;-65
2021/06/12 06:44:47;;;;;;;7.20;5.37;;;21.30;99.90;;;;;;5312223;27;20114;-64
2021/06/12 06:47:14;;;;;;;7.80;6.00;;;21.60;99.90;;;;;;5311960;27;20147;-64
2021/06/12 06:49:41;;;;;;;7.10;5.20;;;21.60;99.90;;;;;;5311726;27;20137;-63
2021/06/12 06:52:08;;;;;;;8.33;5.70;;;21.60;99.90;;;;;;5311338;27;20149;-62
2021/06/12 06:54:35;;;;;;;7.73;5.40;;;21.60;99.90;;;;;;5311742;27;20125;-63
2021/06/12 06:57:02;;;;;;;12.67;5.80;;;21.70;99.90;;;;;;5310219;27;20126;-63
2021/06/12 06:59:30;;;;;;;7.67;5.53;;;21.90;99.90;;;;;;5311633;27;20106;-63
2021/06/12 07:01:57;;;;;;;9.23;6.40;;;22.20;99.90;;;;;;5309530;27;20172;-64
2021/06/12 07:04:24;;;;;;;9.87;5.57;;;22.10;99.90;;;;;;5309057;27;20399;-62
2021/06/12 07:06:51;;;;;;;12.33;5.50;;;21.90;99.90;;;;;;5311919;27;20180;-62
2021/06/12 07:09:18;;;;;;;10.37;5.37;;;22.10;99.90;;;;;;5311424;27;20136;-63
2021/06/12 07:11:45;;;;;;;7.27;5.50;;;22.20;99.90;;;;;;5311227;27;20134;-63
2021/06/12 07:14:12;;;;;;;6.37;5.23;;;22.30;99.90;;;;;;5308368;27;20141;-63
2021/06/12 07:16:39;;;;;;;15.10;5.17;;;22.30;99.90;;;;;;5308398;27;20167;-62
2021/06/12 07:19:06;;;;;;;13.35;5.40;;;22.30;99.90;;;;;;5307353;27;20126;-62
2021/06/12 07:21:33;;;;;;;10.53;5.77;;;22.30;99.90;;;;;;5307742;27;20150;-62
2021/06/12 07:24:01;;;;;;;10.40;5.27;;;22.50;99.90;;;;;;5307953;27;20165;-61
2021/06/12 07:26:28;;;;;;;7.00;4.87;;;22.70;99.90;;;;;;5307803;27;20152;-63
2021/06/12 07:28:54;;;;;;;14.73;5.57;;;22.80;99.90;;;;;;5307423;27;20158;-62
2021/06/12 07:31:35;;;;;;;10.10;4.68;;;22.80;99.90;;;;;;5309783;27;20178;-62
2021/06/12 07:34:03;;;;;;;12.77;5.17;;;22.90;99.90;;;;;;5311698;27;20175;-62
2021/06/12 07:36:31;;;;;;;70.57;8.87;;;23.00;99.90;;;;;;5311406;27;20155;-62
2021/06/12 07:38:58;;;;;;;13.70;5.75;;;23.20;99.90;;;;;;5309846;27;20129;-62
2021/06/12 07:41:26;;;;;;;14.80;4.97;;;23.60;99.30;;;;;;5311271;27;20463;-62
2021/06/12 07:43:54;;;;;;;12.20;5.15;;;23.60;97.70;;;;;;5311201;27;20141;-62
2021/06/12 07:46:21;;;;;;;6.53;4.68;;;23.80;97.00;;;;;;5310483;27;20158;-62
2021/06/12 07:48:48;;;;;;;8.85;5.05;;;23.90;97.10;;;;;;5311307;27;20114;-62
2021/06/12 07:51:15;;;;;;;6.45;4.85;;;23.90;96.90;;;;;;5310548;27;20161;-61
2021/06/12 07:53:42;;;;;;;5.60;4.78;;;24.00;95.80;;;;;;5309421;27;20202;-62
2021/06/12 07:56:09;;;;;;;7.03;4.40;;;24.00;94.90;;;;;;5311314;27;20159;-62
2021/06/12 07:58:35;;;;;;;9.93;5.15;;;24.00;95.20;;;;;;5310398;27;20114;-61
2021/06/12 08:01:03;;;;;;;8.38;5.30;;;24.10;96.10;;;;;;5311748;27;20152;-62
2021/06/12 08:03:30;;;;;;;9.40;5.70;;;24.10;95.40;;;;;;5311376;27;20110;-62
2021/06/12 08:05:57;;;;;;;9.70;5.50;;;24.00;94.90;;;;;;5311326;27;20332;-62
2021/06/12 08:08:24;;;;;;;9.75;5.87;;;24.10;95.50;;;;;;5310174;27;20109;-66
2021/06/12 08:10:50;;;;;;;8.50;4.97;;;24.00;94.90;;;;;;5308956;27;20136;-62
2021/06/12 08:13:17;;;;;;;5.68;4.53;;;23.80;94.70;;;;;;5311366;27;20110;-62
2021/06/12 08:15:44;;;;;;;7.23;4.90;;;23.90;93.70;;;;;;5310697;27;20120;-64
2021/06/12 08:18:11;;;;;;;5.57;4.37;;;24.00;93.40;;;;;;5311388;27;20117;-63
2021/06/12 08:20:38;;;;;;;5.53;4.47;;;24.10;93.10;;;;;;5308339;27;20440;-63
2021/06/12 08:23:05;;;;;;;6.72;4.75;;;24.10;93.20;;;;;;5311237;27;20118;-63
2021/06/12 08:25:32;;;;;;;6.37;4.90;;;24.60;92.70;;;;;;5310163;27;20113;-67
2021/06/12 08:28:02;;;;;;;7.87;5.75;;;25.20;91.50;;;;;;5309219;27;20123;-62
2021/06/12 08:30:29;;;;;;;6.97;5.18;;;25.70;88.40;;;;;;5307773;27;20176;-62
2021/06/12 08:32:56;;;;;;;8.15;5.80;;;26.00;87.50;;;;;;5304577;27;20160;-63
2021/06/12 08:35:23;;;;;;;7.53;5.80;;;25.90;85.40;;;;;;5305130;27;20172;-62
2021/06/12 08:37:50;;;;;;;21.45;5.97;;;25.80;87.40;;;;;;5305797;27;20125;-64
2021/06/12 08:40:17;;;;;;;16.65;6.47;;;26.30;85.90;;;;;;5304782;27;20142;-63
2021/06/12 08:42:51;;;;;;;15.40;5.40;;;26.30;85.10;;;;;;5305816;27;20443;-63
2021/06/12 08:45:20;;;;;;;18.23;6.35;;;26.30;86.20;;;;;;5307833;27;20122;-63
2021/06/12 08:47:47;;;;;;;7.28;5.65;;;26.40;85.00;;;;;;5311035;27;20113;-63
2021/06/12 08:50:14;;;;;;;6.47;5.32;;;25.60;84.00;;;;;;5309864;27;20226;-63
2021/06/12 08:52:41;;;;;;;7.82;5.37;;;25.80;85.00;;;;;;5308936;27;20113;-63
2021/06/12 08:55:10;;;;;;;6.57;5.00;;;25.60;84.90;;;;;;5310748;27;20130;-63
2021/06/12 08:57:38;;;;;;;6.25;5.65;;;25.70;86.50;;;;;;5310684;27;20114;-63
2021/06/12 09:00:06;;;;;;;7.68;5.60;;;25.60;84.60;;;;;;5310734;27;20117;-63
2021/06/12 09:03:04;;;;;;;5.90;4.90;;;25.50;84.10;;;;;;5310373;27;20200;-61
2021/06/12 09:05:53;;;;;;;6.22;4.40;;;25.40;85.30;;;;;;5311198;27;20141;-62
2021/06/12 09:08:26;;;;;;;8.90;5.12;;;25.40;84.50;;;;;;5243219;27;20130;-63
2021/06/12 09:11:05;;;;;;;6.15;4.50;;;25.50;81.10;;;;;;5224913;27;20183;-61
2021/06/12 09:13:46;;;;;;;5.35;4.70;;;25.50;81.70;;;;;;5243230;27;20137;-62
2021/06/12 09:16:35;;;;;;;6.32;4.60;;;25.80;80.40;;;;;;5242929;27;20153;-62
2021/06/12 09:19:23;;;;;;;7.78;4.53;;;25.20;80.20;;;;;;5243104;27;20177;-63
2021/06/12 09:21:56;;;;;;;9.57;5.07;;;25.20;82.30;;;;;;5243411;27;20159;-62
2021/06/12 09:24:39;;;;;;;13.07;5.10;;;25.30;82.40;;;;;;5242816;27;20149;-62
2021/06/12 09:27:14;;;;;;;13.32;5.10;;;25.50;81.10;;;;;;5243233;27;20122;-62
2021/06/12 09:29:47;;;;;;;7.57;4.50;;;25.30;81.40;;;;;;5242280;27;20115;-62
2021/06/12 09:32:15;;;;;;;8.73;4.85;;;25.20;82.80;;;;;;5242973;27;20365;-62
2021/06/12 09:34:45;;;;;;;6.57;4.60;;;25.30;82.40;;;;;;5242534;27;20111;-62
2021/06/12 09:37:15;;;;;;;5.53;4.35;;;25.40;80.90;;;;;;5246434;27;20122;-62
2021/06/12 09:39:59;;;;;;;11.23;4.47;;;25.80;81.30;;;;;;5263595;27;20142;-63
2021/06/12 09:42:35;;;;;;;10.85;4.70;;;26.40;80.00;;;;;;5264812;27;20352;-62
2021/06/12 09:45:07;;;;;;;5.50;5.00;;;26.30;77.30;;;;;;5278146;27;20121;-62
2021/06/12 09:47:34;;;;;;;5.03;4.53;;;26.30;76.00;;;;;;5309039;27;20145;-63
2021/06/12 09:50:03;;;;;;;6.37;4.60;;;26.10;78.10;;;;;;5310484;27;20133;-63
2021/06/12 09:52:47;;;;;;;6.80;4.72;;;26.00;76.90;;;;;;5310346;27;20114;-63
2021/06/12 09:55:24;;;;;;;9.40;5.15;;;26.00;77.20;;;;;;5310468;27;20125;-64
2021/06/12 09:57:51;;;;;;;34.95;6.87;;;26.20;75.40;;;;;;5309333;27;20109;-63
2021/06/12 10:00:34;;;;;;;17.62;5.78;;;26.30;76.70;;;;;;5310139;27;20129;-63
2021/06/12 10:03:01;;;;;;;14.73;5.45;;;26.60;75.40;;;;;;5310314;27;20138;-64
2021/06/12 10:05:28;;;;;;;6.07;4.97;;;26.40;75.30;;;;;;5309552;27;20419;-64
2021/06/12 10:07:56;;;;;;;7.68;4.78;;;26.50;74.80;;;;;;5310953;27;20109;-63
2021/06/12 10:10:23;;;;;;;5.30;4.62;;;26.40;74.20;;;;;;5310395;27;20186;-63
2021/06/12 10:12:51;;;;;;;6.32;4.97;;;26.50;74.70;;;;;;5310578;27;20144;-64
2021/06/12 10:15:19;;;;;;;9.60;5.10;;;26.50;73.20;;;;;;5309866;27;20137;-64
2021/06/12 10:17:50;;;;;;;8.63;4.95;;;26.30;76.60;;;;;;5309399;27;20500;-64
2021/06/12 10:20:21;;;;;;;6.62;4.85;;;26.60;75.40;;;;;;5310144;27;20114;-63
2021/06/12 10:22:50;;;;;;;11.00;4.90;;;26.90;75.20;;;;;;5309224;27;20130;-65
2021/06/12 10:25:19;;;;;;;6.80;4.87;;;27.10;73.70;;;;;;5310410;27;20114;-65
2021/06/12 10:27:46;;;;;;;5.87;4.82;;;27.10;72.50;;;;;;5307978;27;20114;-63
2021/06/12 10:30:16;;;;;;;6.25;4.82;;;26.80;73.60;;;;;;5309313;27;20148;-64
2021/06/12 10:32:48;;;;;;;5.57;4.97;;;26.70;74.80;;;;;;5310093;27;20157;-64
2021/06/12 10:35:21;;;;;;;8.00;5.87;;;26.50;75.70;;;;;;5310473;27;20147;-65
2021/06/12 10:38:17;;;;;;;5.45;4.82;;;26.10;77.00;;;;;;5310669;27;20105;-64
2021/06/12 10:40:47;;;;;;;7.15;5.60;;;26.10;78.00;;;;;;5309946;27;20141;-64
2021/06/12 10:43:25;;;;;;;8.02;5.45;;;26.30;77.30;;;;;;5309932;27;20240;-65
2021/06/12 10:46:07;;;;;;;7.03;5.57;;;26.10;78.80;;;;;;5311250;27;20105;-63
2021/06/12 10:48:40;;;;;;;8.48;6.03;;;26.00;80.10;;;;;;5311296;27;20113;-64
2021/06/12 10:51:10;;;;;;;7.53;6.07;;;26.00;81.40;;;;;;5311588;27;20148;-64
2021/06/12 10:53:38;;;;;;;7.05;5.68;;;25.70;82.90;;;;;;5311530;27;20428;-63
2021/06/12 10:56:07;;;;;;;6.72;5.70;;;25.60;83.60;;;;;;5309631;27;20200;-64
2021/06/12 10:58:43;;;;;;;8.27;5.50;;;25.40;84.60;;;;;;5310796;27;20163;-63
2021/06/12 11:01:19;;;;;;;7.40;5.50;;;25.40;84.50;;;;;;5311751;27;20114;-63
2021/06/12 11:09:18;;;;;;;6.32;5.47;;;25.80;84.20;;;;;;5311767;27;20157;-63
2021/06/12 11:12:02;;;;;;;6.18;5.50;;;25.90;82.80;;;;;;5309151;27;20137;-63
2021/06/12 11:14:33;;;;;;;7.40;5.78;;;25.70;83.90;;;;;;5311717;27;20114;-62
2021/06/12 11:17:06;;;;;;;9.52;5.90;;;25.50;83.90;;;;;;5311344;27;20129;-65
2021/06/12 11:19:48;;;;;;;8.00;5.80;;;25.00;86.90;;;;;;5312280;27;20110;-64
2021/06/12 11:22:37;;;;;;;11.02;6.10;;;24.80;89.40;;;;;;5311901;27;20110;-64
2021/06/12 11:25:13;;;;;;;7.85;5.70;;;24.60;90.50;;;;;;5310501;27;20154;-64
2021/06/12 11:27:43;;;;;;;6.37;5.43;;;25.20;90.00;;;;;;5309567;27;20109;-64
2021/06/12 11:30:14;;;;;;;6.93;5.28;;;25.50;88.00;;;;;;5311030;27;20331;-64
2021/06/12 11:33:08;;;;;;;7.57;4.80;;;25.90;87.90;;;;;;5308642;27;20431;-65
2021/06/12 11:35:38;;;;;;;5.40;4.90;;;26.50;87.00;;;;;;5310642;27;20172;-64
2021/06/12 11:38:10;;;;;;;6.87;4.97;;;27.30;81.70;;;;;;5310884;27;20180;-64
2021/06/12 11:40:39;;;;;;;4.80;4.40;;;28.60;78.90;;;;;;5311278;27;20121;-64
2021/06/12 11:43:06;;;;;;;5.60;4.07;;;29.50;71.50;;;;;;5308460;27;20122;-63
2021/06/12 11:45:35;;;;;;;4.80;4.25;;;29.70;67.80;;;;;;5306934;27;20118;-64
2021/06/12 11:48:20;;;;;;;5.30;4.10;;;29.80;68.20;;;;;;5308254;27;20129;-65
2021/06/12 11:50:49;;;;;;;4.47;4.07;;;30.40;66.40;;;;;;5306880;27;20316;-64
2021/06/12 11:53:21;;;;;;;6.07;4.00;;;30.30;64.40;;;;;;5309283;27;20126;-65
2021/06/12 11:55:49;;;;;;;5.62;4.28;;;30.30;63.10;;;;;;5307096;27;20435;-65
2021/06/12 11:58:16;;;;;;;7.57;4.70;;;30.30;63.60;;;;;;5307699;27;20137;-64
2021/06/12 12:00:47;;;;;;;7.25;4.65;;;30.20;63.80;;;;;;5307900;27;20126;-65
2021/06/12 12:03:18;;;;;;;6.20;4.80;;;29.80;63.90;;;;;;5308108;27;20215;-64
2021/06/12 12:05:58;;;;;;;6.15;4.90;;;29.20;66.00;;;;;;5311163;27;20128;-64
2021/06/12 12:08:25;;;;;;;7.07;4.95;;;28.50;66.70;;;;;;5310193;27;20181;-65
2021/06/12 12:10:56;;;;;;;6.30;4.97;;;28.90;68.30;;;;;;5311126;27;20125;-65
2021/06/12 12:13:37;;;;;;;8.75;5.43;;;29.00;65.50;;;;;;5312035;27;20106;-64
2021/06/12 12:16:23;;;;;;;6.28;4.80;;;29.10;66.20;;;;;;5311478;27;20129;-65
2021/06/12 12:18:52;;;;;;;6.28;4.80;;;28.90;67.00;;;;;;5311092;27;20124;-64
2021/06/12 12:21:33;;;;;;;5.70;4.55;;;28.70;66.00;;;;;;5311112;27;20106;-64
2021/06/12 12:24:01;;;;;;;6.55;4.80;;;28.40;66.80;;;;;;5310670;27;20373;-65
2021/06/12 12:26:28;;;;;;;5.97;4.35;;;28.50;66.60;;;;;;5310817;27;20110;-64
2021/06/12 12:28:58;;;;;;;7.32;5.00;;;28.10;67.90;;;;;;5310339;27;20155;-64
2021/06/12 12:31:28;;;;;;;6.40;5.20;;;28.20;68.00;;;;;;5309872;27;20489;-64
2021/06/12 12:33:57;;;;;;;7.45;5.20;;;27.60;69.50;;;;;;5309027;27;20121;-65
2021/06/12 12:36:25;;;;;;;5.75;5.10;;;27.50;71.10;;;;;;5309487;27;20531;-65
2021/06/12 12:39:04;;;;;;;6.57;5.53;;;27.50;71.70;;;;;;5309445;27;20155;-64
2021/06/12 12:41:31;;;;;;;5.18;4.78;;;27.10;71.80;;;;;;5309892;27;20109;-64
2021/06/12 12:44:10;;;;;;;7.47;5.45;;;27.10;73.30;;;;;;5310236;27;20364;-64
2021/06/12 12:46:39;;;;;;;6.35;5.40;;;26.50;75.90;;;;;;5310361;27;20352;-64
2021/06/12 12:49:08;;;;;;;6.55;5.70;;;26.00;78.40;;;;;;5308314;27;20148;-64
2021/06/12 12:51:36;;;;;;;6.22;5.47;;;25.90;79.80;;;;;;5310029;27;20117;-64
2021/06/12 12:54:12;;;;;;;7.10;5.50;;;26.00;81.10;;;;;;5308798;27;20184;-65
2021/06/12 12:57:07;;;;;;;6.95;5.37;;;25.90;82.60;;;;;;5310140;27;20468;-64
2021/06/12 12:59:42;;;;;;;6.45;5.80;;;25.70;83.00;;;;;;5310263;27;20129;-65